Portada
METAR-TAF:

METAR-TAF

Aeroports :

Coatesville, Pennsilvània, Estats Units d'Amèrica

latitud: 39-58-44N, longitud: 075-51-56W, altitud: 201 m

Observació

L'informe es va fer fa 21 minuts, a les 18:15 UTC
Vent calma
Temperatura 26°C
Humitat 54%
Pressió 1023 hPa
Visibilitat: 16.1 km
Cel clar

METAR: KMQS 261815Z AUTO 00000KT 10SM CLR 26/16 A3022 RMK AO2

Hora: 14:36 (18:36 UTC)


TAF: manca

Observacions i pronòstics meteorològics de més de 4000 aeroports (METAR i TAF).

Les estacions disponibles són els punts grocs i vermells al mapa.

Posi el ratolí al punt desitjat per veure el nom de l'estació.

Feu clic per veure les observacions i els pronòstics meteorològics.

Per canviar el mapa: feu clic els botons verds amb una creu de color negre per apropar; al botó verd amb un guió per allunyar la imatge; o en les fletxes verdes per a mapes adjacents.


METAR-TAF: